EDAC/ADC METAR and TAF weather

Enter ICAO airport designator
Station Type Date Time Source
EDAC METAR 2022/11/30 16:50 UTC NOAA

EDAC 301650Z 11004KT CAVOK 02/M01 Q1023


Station Type Date Time Source
EDAC Decoded METAR 2022/11/30 16:50 UTC NOAA

Altenburg Nobitz, Germany (EDAC) 50-58N 012-30E
Nov 30, 2022 - 11:50 AM EST / 2022.11.30 1650 UTC
Wind: from the ESE (110 degrees) at 5 MPH (4 KT):0
Visibility: greater than 7 mile(s):0
Temperature: 35 F (2 C)
Windchill: 30 F (-1 C):1
Dew Point: 30 F (-1 C)
Relative Humidity: 80%
Pressure (altimeter): 30.21 in. Hg (1023 hPa)
ob: EDAC 301650Z 11004KT CAVOK 02/M01 Q1023
cycle: 17

Station Type Date Time Source
EDAC TAF UTC NOAA

Error!

Example: see airport list